Terminal Aerodrome Forecast
Issued by NWS Cleveland, OH

Home | Current Version | Previous Version | Graphics & Text | Print | Product List | Glossary On
Versions: 1 2 3 4 5 6 7 8 9 10 11 12 13 14 15
000
FTUS41 KCLE 271048 AAA
TAFCAK
TAF AMD
KCAK 271048Z 2711/2806 22008KT P6SM FEW015 OVC025
     FM271400 22012G22KT P6SM BKN015
     FM271600 22015G25KT P6SM BKN040
     FM271900 23015G25KT P6SM BKN050
      TEMPO 2722/2801 3SM -TSRA OVC035CB
     FM280400 26008KT 6SM BR VCSH BKN035 OVC080=

USA.gov is the U.S. government's official web portal to all federal, state and local government web resources and services.